sensor_id;sensor_type;location;lat;lon;timestamp;temperature;humidity
19206;DHT22;59358;52.134;5.596;2022-08-19T00:00:38;18.30;99.90
19206;DHT22;59358;52.134;5.596;2022-08-19T00:03:06;18.20;99.90
19206;DHT22;59358;52.134;5.596;2022-08-19T00:05:34;18.20;99.90
19206;DHT22;59358;52.134;5.596;2022-08-19T00:08:01;18.20;99.90
19206;DHT22;59358;52.134;5.596;2022-08-19T00:10:28;18.10;99.90
19206;DHT22;59358;52.134;5.596;2022-08-19T00:12:55;18.10;99.90
19206;DHT22;59358;52.134;5.596;2022-08-19T00:15:22;18.10;99.90
19206;DHT22;59358;52.134;5.596;2022-08-19T00:17:49;18.00;99.90
19206;DHT22;59358;52.134;5.596;2022-08-19T00:20:19;18.00;99.90
19206;DHT22;59358;52.134;5.596;2022-08-19T00:22:48;18.00;99.90
19206;DHT22;59358;52.134;5.596;2022-08-19T00:25:15;18.00;99.90
19206;DHT22;59358;52.134;5.596;2022-08-19T00:27:42;18.00;99.90
19206;DHT22;59358;52.134;5.596;2022-08-19T00:30:10;18.00;99.90
19206;DHT22;59358;52.134;5.596;2022-08-19T00:32:37;18.00;99.90
19206;DHT22;59358;52.134;5.596;2022-08-19T00:35:05;18.00;99.90
19206;DHT22;59358;52.134;5.596;2022-08-19T00:37:32;17.90;99.90
19206;DHT22;59358;52.134;5.596;2022-08-19T00:40:03;17.90;99.90
19206;DHT22;59358;52.134;5.596;2022-08-19T00:42:29;17.90;99.90
19206;DHT22;59358;52.134;5.596;2022-08-19T00:44:56;17.80;99.90
19206;DHT22;59358;52.134;5.596;2022-08-19T00:47:23;17.80;99.90
19206;DHT22;59358;52.134;5.596;2022-08-19T00:49:51;17.80;99.90
19206;DHT22;59358;52.134;5.596;2022-08-19T00:52:22;17.80;99.90
19206;DHT22;59358;52.134;5.596;2022-08-19T00:54:50;17.80;99.90
19206;DHT22;59358;52.134;5.596;2022-08-19T00:57:23;17.80;99.90
19206;DHT22;59358;52.134;5.596;2022-08-19T00:59:52;17.70;99.90
19206;DHT22;59358;52.134;5.596;2022-08-19T01:02:20;17.60;99.90
19206;DHT22;59358;52.134;5.596;2022-08-19T01:04:47;17.70;99.90
19206;DHT22;59358;52.134;5.596;2022-08-19T01:07:14;17.60;99.90
19206;DHT22;59358;52.134;5.596;2022-08-19T01:09:40;17.60;99.90
19206;DHT22;59358;52.134;5.596;2022-08-19T01:12:08;17.70;99.90
19206;DHT22;59358;52.134;5.596;2022-08-19T01:14:37;17.60;99.90
19206;DHT22;59358;52.134;5.596;2022-08-19T01:17:06;17.60;99.90
19206;DHT22;59358;52.134;5.596;2022-08-19T01:19:36;17.60;99.90
19206;DHT22;59358;52.134;5.596;2022-08-19T01:22:06;17.60;99.90
19206;DHT22;59358;52.134;5.596;2022-08-19T01:24:36;17.60;99.90
19206;DHT22;59358;52.134;5.596;2022-08-19T01:27:04;17.50;99.90
19206;DHT22;59358;52.134;5.596;2022-08-19T01:29:31;17.50;99.90
19206;DHT22;59358;52.134;5.596;2022-08-19T01:31:57;17.50;99.90
19206;DHT22;59358;52.134;5.596;2022-08-19T01:34:24;17.40;99.90
19206;DHT22;59358;52.134;5.596;2022-08-19T01:36:51;17.40;99.90
19206;DHT22;59358;52.134;5.596;2022-08-19T01:39:20;17.30;99.90
19206;DHT22;59358;52.134;5.596;2022-08-19T01:41:49;17.30;99.90
19206;DHT22;59358;52.134;5.596;2022-08-19T01:44:17;17.30;99.90
19206;DHT22;59358;52.134;5.596;2022-08-19T01:46:47;17.20;99.90
19206;DHT22;59358;52.134;5.596;2022-08-19T01:49:16;17.20;99.90
19206;DHT22;59358;52.134;5.596;2022-08-19T01:51:45;17.20;99.90
19206;DHT22;59358;52.134;5.596;2022-08-19T01:54:13;17.10;99.90
19206;DHT22;59358;52.134;5.596;2022-08-19T01:56:40;17.10;99.90
19206;DHT22;59358;52.134;5.596;2022-08-19T01:59:10;17.10;99.90
19206;DHT22;59358;52.134;5.596;2022-08-19T02:01:38;17.10;99.90
19206;DHT22;59358;52.134;5.596;2022-08-19T02:04:05;17.10;99.90
19206;DHT22;59358;52.134;5.596;2022-08-19T02:06:32;17.10;99.90
19206;DHT22;59358;52.134;5.596;2022-08-19T02:08:59;17.10;99.90
19206;DHT22;59358;52.134;5.596;2022-08-19T02:11:28;17.10;99.90
19206;DHT22;59358;52.134;5.596;2022-08-19T02:13:58;17.10;99.90
19206;DHT22;59358;52.134;5.596;2022-08-19T02:16:26;17.10;99.90
19206;DHT22;59358;52.134;5.596;2022-08-19T02:18:53;17.10;99.90
19206;DHT22;59358;52.134;5.596;2022-08-19T02:21:21;17.10;99.90
19206;DHT22;59358;52.134;5.596;2022-08-19T02:23:49;17.10;99.90
19206;DHT22;59358;52.134;5.596;2022-08-19T02:26:17;17.00;99.90
19206;DHT22;59358;52.134;5.596;2022-08-19T02:28:45;17.00;99.90
19206;DHT22;59358;52.134;5.596;2022-08-19T02:31:16;17.00;99.90
19206;DHT22;59358;52.134;5.596;2022-08-19T02:33:45;17.00;99.90
19206;DHT22;59358;52.134;5.596;2022-08-19T02:36:14;17.00;99.90
19206;DHT22;59358;52.134;5.596;2022-08-19T02:38:44;17.00;99.90
19206;DHT22;59358;52.134;5.596;2022-08-19T02:41:14;17.00;99.90
19206;DHT22;59358;52.134;5.596;2022-08-19T02:43:42;17.00;99.90
19206;DHT22;59358;52.134;5.596;2022-08-19T02:46:13;17.00;99.90
19206;DHT22;59358;52.134;5.596;2022-08-19T02:48:41;17.00;99.90
19206;DHT22;59358;52.134;5.596;2022-08-19T02:51:16;16.90;99.90
19206;DHT22;59358;52.134;5.596;2022-08-19T02:53:43;16.90;99.90
19206;DHT22;59358;52.134;5.596;2022-08-19T02:56:10;16.90;99.90
19206;DHT22;59358;52.134;5.596;2022-08-19T02:58:37;16.90;99.90
19206;DHT22;59358;52.134;5.596;2022-08-19T03:01:04;16.80;99.90
19206;DHT22;59358;52.134;5.596;2022-08-19T03:03:31;16.80;99.90
19206;DHT22;59358;52.134;5.596;2022-08-19T03:06:11;16.80;99.90
19206;DHT22;59358;52.134;5.596;2022-08-19T03:08:40;16.80;99.90
19206;DHT22;59358;52.134;5.596;2022-08-19T03:11:13;16.80;99.90
19206;DHT22;59358;52.134;5.596;2022-08-19T03:13:40;16.80;99.90
19206;DHT22;59358;52.134;5.596;2022-08-19T03:16:10;16.90;99.90
19206;DHT22;59358;52.134;5.596;2022-08-19T03:18:37;16.80;99.90
19206;DHT22;59358;52.134;5.596;2022-08-19T03:21:05;16.90;99.90
19206;DHT22;59358;52.134;5.596;2022-08-19T03:23:33;16.90;99.90
19206;DHT22;59358;52.134;5.596;2022-08-19T03:26:04;16.80;99.90
19206;DHT22;59358;52.134;5.596;2022-08-19T03:28:31;16.90;99.90
19206;DHT22;59358;52.134;5.596;2022-08-19T03:31:00;16.80;99.90
19206;DHT22;59358;52.134;5.596;2022-08-19T03:33:28;16.80;99.90
19206;DHT22;59358;52.134;5.596;2022-08-19T03:36:04;16.80;99.90
19206;DHT22;59358;52.134;5.596;2022-08-19T03:38:34;16.80;99.90
19206;DHT22;59358;52.134;5.596;2022-08-19T03:41:06;16.70;99.90
19206;DHT22;59358;52.134;5.596;2022-08-19T03:43:34;16.80;99.90
19206;DHT22;59358;52.134;5.596;2022-08-19T03:46:02;16.70;99.90
19206;DHT22;59358;52.134;5.596;2022-08-19T03:48:30;16.80;99.90
19206;DHT22;59358;52.134;5.596;2022-08-19T03:50:57;16.70;99.90
19206;DHT22;59358;52.134;5.596;2022-08-19T03:53:25;16.70;99.90
19206;DHT22;59358;52.134;5.596;2022-08-19T03:55:54;16.70;99.90
19206;DHT22;59358;52.134;5.596;2022-08-19T03:58:22;16.70;99.90
19206;DHT22;59358;52.134;5.596;2022-08-19T04:00:49;16.70;99.90
19206;DHT22;59358;52.134;5.596;2022-08-19T04:03:16;16.70;99.90
19206;DHT22;59358;52.134;5.596;2022-08-19T04:05:44;16.70;99.90
19206;DHT22;59358;52.134;5.596;2022-08-19T04:08:12;16.70;99.90
19206;DHT22;59358;52.134;5.596;2022-08-19T04:10:40;16.70;99.90
19206;DHT22;59358;52.134;5.596;2022-08-19T04:13:09;16.60;99.90
19206;DHT22;59358;52.134;5.596;2022-08-19T04:15:39;16.50;99.90
19206;DHT22;59358;52.134;5.596;2022-08-19T04:18:07;16.50;99.90
19206;DHT22;59358;52.134;5.596;2022-08-19T04:20:39;16.50;99.90
19206;DHT22;59358;52.134;5.596;2022-08-19T04:23:07;16.40;99.90
19206;DHT22;59358;52.134;5.596;2022-08-19T04:25:38;16.40;99.90
19206;DHT22;59358;52.134;5.596;2022-08-19T04:28:06;16.40;99.90
19206;DHT22;59358;52.134;5.596;2022-08-19T04:30:39;16.40;99.90
19206;DHT22;59358;52.134;5.596;2022-08-19T04:33:06;16.40;99.90
19206;DHT22;59358;52.134;5.596;2022-08-19T04:35:38;16.40;99.90
19206;DHT22;59358;52.134;5.596;2022-08-19T04:38:06;16.40;99.90
19206;DHT22;59358;52.134;5.596;2022-08-19T04:40:33;16.40;99.90
19206;DHT22;59358;52.134;5.596;2022-08-19T04:43:18;16.30;99.90
19206;DHT22;59358;52.134;5.596;2022-08-19T04:45:46;16.30;99.90
19206;DHT22;59358;52.134;5.596;2022-08-19T04:48:14;16.30;99.90
19206;DHT22;59358;52.134;5.596;2022-08-19T04:50:42;16.30;99.90
19206;DHT22;59358;52.134;5.596;2022-08-19T04:53:09;16.30;99.90
19206;DHT22;59358;52.134;5.596;2022-08-19T04:55:39;16.30;99.90
19206;DHT22;59358;52.134;5.596;2022-08-19T04:58:06;16.30;99.90
19206;DHT22;59358;52.134;5.596;2022-08-19T05:00:33;16.30;99.90
19206;DHT22;59358;52.134;5.596;2022-08-19T05:03:01;16.30;99.90
19206;DHT22;59358;52.134;5.596;2022-08-19T05:05:28;16.30;99.90
19206;DHT22;59358;52.134;5.596;2022-08-19T05:07:57;16.30;99.90
19206;DHT22;59358;52.134;5.596;2022-08-19T05:10:23;16.30;99.90
19206;DHT22;59358;52.134;5.596;2022-08-19T05:12:50;16.40;99.90
19206;DHT22;59358;52.134;5.596;2022-08-19T05:15:17;16.40;99.90
19206;DHT22;59358;52.134;5.596;2022-08-19T05:17:44;16.40;99.90
19206;DHT22;59358;52.134;5.596;2022-08-19T05:20:32;16.50;99.90
19206;DHT22;59358;52.134;5.596;2022-08-19T05:23:16;16.50;99.90
19206;DHT22;59358;52.134;5.596;2022-08-19T05:25:43;16.60;99.90
19206;DHT22;59358;52.134;5.596;2022-08-19T05:28:10;16.60;99.90
19206;DHT22;59358;52.134;5.596;2022-08-19T05:30:37;16.70;99.90
19206;DHT22;59358;52.134;5.596;2022-08-19T05:33:06;16.80;99.90
19206;DHT22;59358;52.134;5.596;2022-08-19T05:35:35;16.80;99.90
19206;DHT22;59358;52.134;5.596;2022-08-19T05:38:03;16.90;99.90
19206;DHT22;59358;52.134;5.596;2022-08-19T05:40:30;16.90;99.90
19206;DHT22;59358;52.134;5.596;2022-08-19T05:42:56;17.00;99.90
19206;DHT22;59358;52.134;5.596;2022-08-19T05:45:23;17.00;99.90
19206;DHT22;59358;52.134;5.596;2022-08-19T05:47:50;17.10;99.90
19206;DHT22;59358;52.134;5.596;2022-08-19T05:50:17;17.20;99.90
19206;DHT22;59358;52.134;5.596;2022-08-19T05:52:45;17.20;99.90
19206;DHT22;59358;52.134;5.596;2022-08-19T05:55:12;17.40;99.90
19206;DHT22;59358;52.134;5.596;2022-08-19T05:57:40;17.40;99.90
19206;DHT22;59358;52.134;5.596;2022-08-19T06:00:07;17.50;99.90
19206;DHT22;59358;52.134;5.596;2022-08-19T06:02:36;17.60;99.90
19206;DHT22;59358;52.134;5.596;2022-08-19T06:05:03;17.70;99.90
19206;DHT22;59358;52.134;5.596;2022-08-19T06:07:32;17.70;99.90
19206;DHT22;59358;52.134;5.596;2022-08-19T06:10:00;17.80;99.90
19206;DHT22;59358;52.134;5.596;2022-08-19T06:12:28;17.90;99.90
19206;DHT22;59358;52.134;5.596;2022-08-19T06:14:57;18.00;99.90
19206;DHT22;59358;52.134;5.596;2022-08-19T06:17:24;18.10;99.90
19206;DHT22;59358;52.134;5.596;2022-08-19T06:19:51;18.20;99.90
19206;DHT22;59358;52.134;5.596;2022-08-19T06:22:18;18.20;99.90
19206;DHT22;59358;52.134;5.596;2022-08-19T06:24:45;18.30;99.90
19206;DHT22;59358;52.134;5.596;2022-08-19T06:27:13;18.40;99.90
19206;DHT22;59358;52.134;5.596;2022-08-19T06:29:41;18.50;99.90
19206;DHT22;59358;52.134;5.596;2022-08-19T06:32:08;18.70;99.90
19206;DHT22;59358;52.134;5.596;2022-08-19T06:34:34;18.90;99.90
19206;DHT22;59358;52.134;5.596;2022-08-19T06:37:02;19.00;99.90
19206;DHT22;59358;52.134;5.596;2022-08-19T06:39:31;19.00;99.90
19206;DHT22;59358;52.134;5.596;2022-08-19T06:42:00;19.30;99.90
19206;DHT22;59358;52.134;5.596;2022-08-19T06:44:32;19.30;99.90
19206;DHT22;59358;52.134;5.596;2022-08-19T06:47:01;19.30;99.90
19206;DHT22;59358;52.134;5.596;2022-08-19T06:49:28;19.40;99.90
19206;DHT22;59358;52.134;5.596;2022-08-19T06:51:56;19.20;99.90
19206;DHT22;59358;52.134;5.596;2022-08-19T06:54:24;19.20;99.90
19206;DHT22;59358;52.134;5.596;2022-08-19T06:56:51;19.20;99.90
19206;DHT22;59358;52.134;5.596;2022-08-19T06:59:20;19.20;99.90
19206;DHT22;59358;52.134;5.596;2022-08-19T07:01:51;19.20;99.90
19206;DHT22;59358;52.134;5.596;2022-08-19T07:04:21;19.30;99.90
19206;DHT22;59358;52.134;5.596;2022-08-19T07:06:50;19.30;99.90
19206;DHT22;59358;52.134;5.596;2022-08-19T07:09:18;19.60;99.90
19206;DHT22;59358;52.134;5.596;2022-08-19T07:11:45;19.90;99.90
19206;DHT22;59358;52.134;5.596;2022-08-19T07:14:13;19.90;99.90
19206;DHT22;59358;52.134;5.596;2022-08-19T07:16:41;20.20;99.90
19206;DHT22;59358;52.134;5.596;2022-08-19T07:19:09;20.10;99.90
19206;DHT22;59358;52.134;5.596;2022-08-19T07:21:36;19.90;99.90
19206;DHT22;59358;52.134;5.596;2022-08-19T07:24:03;19.90;99.90
19206;DHT22;59358;52.134;5.596;2022-08-19T07:26:33;19.90;99.90
19206;DHT22;59358;52.134;5.596;2022-08-19T07:29:00;20.00;99.90
19206;DHT22;59358;52.134;5.596;2022-08-19T07:31:27;20.20;99.90
19206;DHT22;59358;52.134;5.596;2022-08-19T07:33:56;20.30;99.90
19206;DHT22;59358;52.134;5.596;2022-08-19T07:36:26;20.40;99.90
19206;DHT22;59358;52.134;5.596;2022-08-19T07:38:59;20.30;99.90
19206;DHT22;59358;52.134;5.596;2022-08-19T07:41:28;20.40;99.90
19206;DHT22;59358;52.134;5.596;2022-08-19T07:43:56;20.60;99.90
19206;DHT22;59358;52.134;5.596;2022-08-19T07:46:23;20.60;99.90
19206;DHT22;59358;52.134;5.596;2022-08-19T07:48:52;20.40;99.90
19206;DHT22;59358;52.134;5.596;2022-08-19T07:51:21;20.50;99.90
19206;DHT22;59358;52.134;5.596;2022-08-19T07:53:49;20.50;99.90
19206;DHT22;59358;52.134;5.596;2022-08-19T07:56:17;20.80;99.90
19206;DHT22;59358;52.134;5.596;2022-08-19T07:58:45;20.90;99.90
19206;DHT22;59358;52.134;5.596;2022-08-19T08:01:14;20.80;99.90
19206;DHT22;59358;52.134;5.596;2022-08-19T08:03:42;20.70;99.90
19206;DHT22;59358;52.134;5.596;2022-08-19T08:06:26;20.80;99.90
19206;DHT22;59358;52.134;5.596;2022-08-19T08:09:14;21.00;99.90
19206;DHT22;59358;52.134;5.596;2022-08-19T08:11:48;20.90;99.90
19206;DHT22;59358;52.134;5.596;2022-08-19T08:14:17;21.00;99.90
19206;DHT22;59358;52.134;5.596;2022-08-19T08:16:45;21.00;99.90
19206;DHT22;59358;52.134;5.596;2022-08-19T08:19:13;21.10;99.90
19206;DHT22;59358;52.134;5.596;2022-08-19T08:21:41;21.40;99.90
19206;DHT22;59358;52.134;5.596;2022-08-19T08:24:08;21.90;99.90
19206;DHT22;59358;52.134;5.596;2022-08-19T08:26:36;21.90;99.90
19206;DHT22;59358;52.134;5.596;2022-08-19T08:29:03;21.80;99.90
19206;DHT22;59358;52.134;5.596;2022-08-19T08:31:30;21.70;99.90
19206;DHT22;59358;52.134;5.596;2022-08-19T08:33:57;21.80;99.90
19206;DHT22;59358;52.134;5.596;2022-08-19T08:36:24;22.40;99.90
19206;DHT22;59358;52.134;5.596;2022-08-19T08:38:51;22.20;99.90
19206;DHT22;59358;52.134;5.596;2022-08-19T08:41:25;22.00;99.90
19206;DHT22;59358;52.134;5.596;2022-08-19T08:43:57;22.00;99.90
19206;DHT22;59358;52.134;5.596;2022-08-19T08:46:30;22.30;99.90
19206;DHT22;59358;52.134;5.596;2022-08-19T08:49:03;22.20;99.90
19206;DHT22;59358;52.134;5.596;2022-08-19T08:51:36;22.50;99.90
19206;DHT22;59358;52.134;5.596;2022-08-19T08:54:07;22.70;99.90
19206;DHT22;59358;52.134;5.596;2022-08-19T08:56:37;22.80;99.90
19206;DHT22;59358;52.134;5.596;2022-08-19T08:59:12;22.70;99.90
19206;DHT22;59358;52.134;5.596;2022-08-19T09:01:42;22.50;99.90
19206;DHT22;59358;52.134;5.596;2022-08-19T09:04:12;22.80;99.90
19206;DHT22;59358;52.134;5.596;2022-08-19T09:06:46;22.90;99.90
19206;DHT22;59358;52.134;5.596;2022-08-19T09:09:17;22.40;99.90
19206;DHT22;59358;52.134;5.596;2022-08-19T09:11:57;22.40;99.90
19206;DHT22;59358;52.134;5.596;2022-08-19T09:14:36;22.60;99.90
19206;DHT22;59358;52.134;5.596;2022-08-19T09:17:08;22.60;99.90
19206;DHT22;59358;52.134;5.596;2022-08-19T09:19:35;22.80;99.90
19206;DHT22;59358;52.134;5.596;2022-08-19T09:22:03;23.00;99.90
19206;DHT22;59358;52.134;5.596;2022-08-19T09:24:30;22.80;99.90
19206;DHT22;59358;52.134;5.596;2022-08-19T09:26:57;22.50;99.90
19206;DHT22;59358;52.134;5.596;2022-08-19T09:29:24;22.60;99.90
19206;DHT22;59358;52.134;5.596;2022-08-19T09:31:52;22.60;99.90
19206;DHT22;59358;52.134;5.596;2022-08-19T09:34:19;22.30;99.90
19206;DHT22;59358;52.134;5.596;2022-08-19T09:36:45;22.40;99.90
19206;DHT22;59358;52.134;5.596;2022-08-19T09:39:12;22.90;99.90
19206;DHT22;59358;52.134;5.596;2022-08-19T09:41:39;23.30;99.90
19206;DHT22;59358;52.134;5.596;2022-08-19T09:44:07;23.10;99.90
19206;DHT22;59358;52.134;5.596;2022-08-19T09:46:34;22.90;99.90
19206;DHT22;59358;52.134;5.596;2022-08-19T09:49:03;23.00;99.90
19206;DHT22;59358;52.134;5.596;2022-08-19T09:51:30;23.20;99.90
19206;DHT22;59358;52.134;5.596;2022-08-19T09:54:00;23.10;99.90
19206;DHT22;59358;52.134;5.596;2022-08-19T09:56:28;23.10;99.90
19206;DHT22;59358;52.134;5.596;2022-08-19T09:58:57;23.00;99.90
19206;DHT22;59358;52.134;5.596;2022-08-19T10:01:26;23.40;99.90
19206;DHT22;59358;52.134;5.596;2022-08-19T10:03:56;23.80;99.90
19206;DHT22;59358;52.134;5.596;2022-08-19T10:06:26;24.00;99.90
19206;DHT22;59358;52.134;5.596;2022-08-19T10:08:55;23.90;99.90
19206;DHT22;59358;52.134;5.596;2022-08-19T10:11:22;23.70;99.90
19206;DHT22;59358;52.134;5.596;2022-08-19T10:13:49;23.80;99.90
19206;DHT22;59358;52.134;5.596;2022-08-19T10:16:18;23.80;99.90
19206;DHT22;59358;52.134;5.596;2022-08-19T10:18:45;23.80;99.90
19206;DHT22;59358;52.134;5.596;2022-08-19T10:21:14;24.00;99.90
19206;DHT22;59358;52.134;5.596;2022-08-19T10:23:45;24.30;99.90
19206;DHT22;59358;52.134;5.596;2022-08-19T10:26:13;24.40;99.90
19206;DHT22;59358;52.134;5.596;2022-08-19T10:28:41;24.70;99.90
19206;DHT22;59358;52.134;5.596;2022-08-19T10:31:10;24.80;99.90
19206;DHT22;59358;52.134;5.596;2022-08-19T10:33:38;25.20;99.90
19206;DHT22;59358;52.134;5.596;2022-08-19T10:36:08;25.10;99.90
19206;DHT22;59358;52.134;5.596;2022-08-19T10:38:36;25.50;99.90
19206;DHT22;59358;52.134;5.596;2022-08-19T10:41:10;25.70;99.90
19206;DHT22;59358;52.134;5.596;2022-08-19T10:43:38;25.50;99.90
19206;DHT22;59358;52.134;5.596;2022-08-19T10:46:06;24.90;99.90
19206;DHT22;59358;52.134;5.596;2022-08-19T10:48:36;24.40;99.90
19206;DHT22;59358;52.134;5.596;2022-08-19T10:51:04;24.40;99.90
19206;DHT22;59358;52.134;5.596;2022-08-19T10:53:48;24.50;99.90
19206;DHT22;59358;52.134;5.596;2022-08-19T10:56:17;24.50;99.90
19206;DHT22;59358;52.134;5.596;2022-08-19T10:59:02;24.30;99.90
19206;DHT22;59358;52.134;5.596;2022-08-19T11:01:30;24.50;99.90
19206;DHT22;59358;52.134;5.596;2022-08-19T11:03:59;25.00;99.90
19206;DHT22;59358;52.134;5.596;2022-08-19T11:06:26;25.50;99.90
19206;DHT22;59358;52.134;5.596;2022-08-19T11:08:53;25.30;99.90
19206;DHT22;59358;52.134;5.596;2022-08-19T11:11:22;25.20;99.90
19206;DHT22;59358;52.134;5.596;2022-08-19T11:13:49;25.10;99.90
19206;DHT22;59358;52.134;5.596;2022-08-19T11:16:19;25.30;99.90
19206;DHT22;59358;52.134;5.596;2022-08-19T11:18:48;25.40;99.90
19206;DHT22;59358;52.134;5.596;2022-08-19T11:21:17;25.40;99.90
19206;DHT22;59358;52.134;5.596;2022-08-19T11:23:47;25.80;99.90
19206;DHT22;59358;52.134;5.596;2022-08-19T11:26:15;26.20;99.90
19206;DHT22;59358;52.134;5.596;2022-08-19T11:28:44;26.50;99.90
19206;DHT22;59358;52.134;5.596;2022-08-19T11:31:12;26.60;99.90
19206;DHT22;59358;52.134;5.596;2022-08-19T11:33:39;26.40;99.90
19206;DHT22;59358;52.134;5.596;2022-08-19T11:36:07;26.30;99.90
19206;DHT22;59358;52.134;5.596;2022-08-19T11:38:34;25.80;99.90
19206;DHT22;59358;52.134;5.596;2022-08-19T11:41:05;26.10;99.90
19206;DHT22;59358;52.134;5.596;2022-08-19T11:43:33;26.50;99.90
19206;DHT22;59358;52.134;5.596;2022-08-19T11:46:04;26.70;99.90
19206;DHT22;59358;52.134;5.596;2022-08-19T11:48:32;26.40;99.90
19206;DHT22;59358;52.134;5.596;2022-08-19T11:50:59;26.30;99.90
19206;DHT22;59358;52.134;5.596;2022-08-19T11:53:25;26.60;99.90
19206;DHT22;59358;52.134;5.596;2022-08-19T11:55:53;27.10;99.90
19206;DHT22;59358;52.134;5.596;2022-08-19T11:58:23;27.40;99.90
19206;DHT22;59358;52.134;5.596;2022-08-19T12:00:51;27.70;99.90
19206;DHT22;59358;52.134;5.596;2022-08-19T12:03:19;27.70;99.90
19206;DHT22;59358;52.134;5.596;2022-08-19T12:05:46;27.40;99.90
19206;DHT22;59358;52.134;5.596;2022-08-19T12:08:15;26.70;99.90
19206;DHT22;59358;52.134;5.596;2022-08-19T12:10:43;26.70;99.90
19206;DHT22;59358;52.134;5.596;2022-08-19T12:13:11;27.00;99.90
19206;DHT22;59358;52.134;5.596;2022-08-19T12:15:40;27.50;99.90
19206;DHT22;59358;52.134;5.596;2022-08-19T12:18:08;27.50;99.90
19206;DHT22;59358;52.134;5.596;2022-08-19T12:20:39;27.30;99.90
19206;DHT22;59358;52.134;5.596;2022-08-19T12:23:07;27.10;99.90
19206;DHT22;59358;52.134;5.596;2022-08-19T12:25:35;27.40;99.90
19206;DHT22;59358;52.134;5.596;2022-08-19T12:28:03;27.50;99.90
19206;DHT22;59358;52.134;5.596;2022-08-19T12:30:29;27.30;99.90
19206;DHT22;59358;52.134;5.596;2022-08-19T12:32:56;27.10;99.90
19206;DHT22;59358;52.134;5.596;2022-08-19T12:35:23;27.40;99.90
19206;DHT22;59358;52.134;5.596;2022-08-19T12:37:51;27.20;99.90
19206;DHT22;59358;52.134;5.596;2022-08-19T12:40:17;27.40;99.90
19206;DHT22;59358;52.134;5.596;2022-08-19T12:42:45;27.80;99.90
19206;DHT22;59358;52.134;5.596;2022-08-19T12:45:13;27.90;99.90
19206;DHT22;59358;52.134;5.596;2022-08-19T12:47:40;27.60;99.90
19206;DHT22;59358;52.134;5.596;2022-08-19T12:50:07;26.80;99.90
19206;DHT22;59358;52.134;5.596;2022-08-19T12:52:35;26.40;99.90
19206;DHT22;59358;52.134;5.596;2022-08-19T12:55:06;26.20;99.90
19206;DHT22;59358;52.134;5.596;2022-08-19T12:57:34;26.20;99.90
19206;DHT22;59358;52.134;5.596;2022-08-19T13:00:04;25.90;99.90
19206;DHT22;59358;52.134;5.596;2022-08-19T13:02:34;25.90;99.90
19206;DHT22;59358;52.134;5.596;2022-08-19T13:05:01;25.00;99.90
19206;DHT22;59358;52.134;5.596;2022-08-19T13:07:28;24.30;99.90
19206;DHT22;59358;52.134;5.596;2022-08-19T13:09:56;24.00;99.90
19206;DHT22;59358;52.134;5.596;2022-08-19T13:12:24;23.80;99.90
19206;DHT22;59358;52.134;5.596;2022-08-19T13:14:52;23.80;99.90
19206;DHT22;59358;52.134;5.596;2022-08-19T13:17:19;23.80;99.90
19206;DHT22;59358;52.134;5.596;2022-08-19T13:19:46;23.70;99.90
19206;DHT22;59358;52.134;5.596;2022-08-19T13:22:12;23.70;99.90
19206;DHT22;59358;52.134;5.596;2022-08-19T13:24:39;23.60;99.90
19206;DHT22;59358;52.134;5.596;2022-08-19T13:27:06;23.70;99.90
19206;DHT22;59358;52.134;5.596;2022-08-19T13:29:34;23.80;99.90
19206;DHT22;59358;52.134;5.596;2022-08-19T13:32:20;24.00;99.90
19206;DHT22;59358;52.134;5.596;2022-08-19T13:35:05;23.90;99.90
19206;DHT22;59358;52.134;5.596;2022-08-19T13:37:32;23.80;99.90
19206;DHT22;59358;52.134;5.596;2022-08-19T13:40:09;23.60;99.90
19206;DHT22;59358;52.134;5.596;2022-08-19T13:42:37;23.40;99.90
19206;DHT22;59358;52.134;5.596;2022-08-19T13:45:06;23.20;99.90
19206;DHT22;59358;52.134;5.596;2022-08-19T13:47:34;23.10;99.90
19206;DHT22;59358;52.134;5.596;2022-08-19T13:50:05;22.90;99.90
19206;DHT22;59358;52.134;5.596;2022-08-19T13:52:32;22.60;99.90
19206;DHT22;59358;52.134;5.596;2022-08-19T13:54:59;22.30;99.90
19206;DHT22;59358;52.134;5.596;2022-08-19T13:57:26;22.10;99.90
19206;DHT22;59358;52.134;5.596;2022-08-19T13:59:53;21.80;99.90
19206;DHT22;59358;52.134;5.596;2022-08-19T14:02:21;21.70;99.90
19206;DHT22;59358;52.134;5.596;2022-08-19T14:04:48;21.70;99.90
19206;DHT22;59358;52.134;5.596;2022-08-19T14:07:14;21.60;99.90
19206;DHT22;59358;52.134;5.596;2022-08-19T14:09:41;21.50;99.90
19206;DHT22;59358;52.134;5.596;2022-08-19T14:12:08;21.50;99.90
19206;DHT22;59358;52.134;5.596;2022-08-19T14:14:37;21.50;99.90
19206;DHT22;59358;52.134;5.596;2022-08-19T14:17:06;21.60;99.90
19206;DHT22;59358;52.134;5.596;2022-08-19T14:19:34;21.40;99.90
19206;DHT22;59358;52.134;5.596;2022-08-19T14:22:01;21.30;99.90
19206;DHT22;59358;52.134;5.596;2022-08-19T14:24:27;21.20;99.90
19206;DHT22;59358;52.134;5.596;2022-08-19T14:26:54;21.00;99.90
19206;DHT22;59358;52.134;5.596;2022-08-19T14:29:21;20.80;99.90
19206;DHT22;59358;52.134;5.596;2022-08-19T14:31:48;20.70;99.90
19206;DHT22;59358;52.134;5.596;2022-08-19T14:34:15;20.70;99.90
19206;DHT22;59358;52.134;5.596;2022-08-19T14:36:43;20.80;99.90
19206;DHT22;59358;52.134;5.596;2022-08-19T14:39:10;20.90;99.90
19206;DHT22;59358;52.134;5.596;2022-08-19T14:41:39;21.00;99.90
19206;DHT22;59358;52.134;5.596;2022-08-19T14:44:06;21.10;99.90
19206;DHT22;59358;52.134;5.596;2022-08-19T14:46:35;21.10;99.90
19206;DHT22;59358;52.134;5.596;2022-08-19T14:49:02;21.00;99.90
19206;DHT22;59358;52.134;5.596;2022-08-19T14:51:29;21.00;99.90
19206;DHT22;59358;52.134;5.596;2022-08-19T14:53:57;21.10;99.90
19206;DHT22;59358;52.134;5.596;2022-08-19T14:56:27;21.30;99.90
19206;DHT22;59358;52.134;5.596;2022-08-19T14:58:54;21.30;99.90
19206;DHT22;59358;52.134;5.596;2022-08-19T15:01:25;21.50;99.90
19206;DHT22;59358;52.134;5.596;2022-08-19T15:03:52;21.60;99.90
19206;DHT22;59358;52.134;5.596;2022-08-19T15:06:20;22.00;99.90
19206;DHT22;59358;52.134;5.596;2022-08-19T15:08:48;22.10;99.90
19206;DHT22;59358;52.134;5.596;2022-08-19T15:11:20;22.20;99.90
19206;DHT22;59358;52.134;5.596;2022-08-19T15:13:48;22.20;99.90
19206;DHT22;59358;52.134;5.596;2022-08-19T15:16:16;22.40;99.90
19206;DHT22;59358;52.134;5.596;2022-08-19T15:18:43;22.40;99.90
19206;DHT22;59358;52.134;5.596;2022-08-19T15:21:10;22.70;99.90
19206;DHT22;59358;52.134;5.596;2022-08-19T15:23:39;22.80;99.90
19206;DHT22;59358;52.134;5.596;2022-08-19T15:26:06;22.90;99.90
19206;DHT22;59358;52.134;5.596;2022-08-19T15:28:37;23.00;99.90
19206;DHT22;59358;52.134;5.596;2022-08-19T15:31:04;23.10;99.90
19206;DHT22;59358;52.134;5.596;2022-08-19T15:33:31;23.20;99.90
19206;DHT22;59358;52.134;5.596;2022-08-19T15:36:00;23.20;99.90
19206;DHT22;59358;52.134;5.596;2022-08-19T15:38:28;23.20;99.90